Airfield :
LOGIN :

Register | Disclaimer

   EN    FR    IT 

 










Legend :    VFR   Marginal VFR   IFR   Intensive IFR   Very Intensive IFR
Visi :
Ceiling :
>= 8 km
>= 3000ft
5 to 8 km
1000 to 3000 ft
1500m to 5 km
500 to 1000 ft
800 to 1500m
200 to 500 ft
< 800m
< 200 ft
Symbols :   Thunderstorms  Fog  Heavy snow  Heavy precipitations  Wind > 20 kt
SIGMETs :     Misc.  Thunderstorms  Icing  Turbulence  Mountain Waves  Volcanic Ashes






- Airport Elevation : 13 ft
- IATA code : LYX


EGMD - Lydd

CURRENT METAR :
  • 200420Z AUTO 22020KT 9999 SCT015/// SCT024/// OVC039/// 09/08 Q1013

EXPIRED METARs :
  • 200350Z AUTO 22023KT 9999 SCT015/// BKN020/// OVC040/// 09/08 Q1014
  • 200320Z AUTO 22021KT 9999 SCT014/// BKN018/// BKN024/// 09/08 Q1014
  • 200250Z AUTO 22022KT 9999 BKN014/// OVC019/// 09/08 Q1014
  • 200220Z AUTO 23020KT 9999 FEW013/// BKN017/// OVC031/// 09/08 Q1015
  • 200150Z AUTO 22020KT 9999 BKN011/// BKN016/// OVC021/// 09/08 Q1015

TAF TAF EGMD
Valid from the 20 at 03:00 until the 20 at 12:00 UTC


200154Z 2003/2012 23018KT 9999 BKN020
TEMPO 2003/2006 22022G32KT
PROB30
TEMPO 2003/2012 7000 -RADZ BKN008
BECMG 2006/2009 22025G35KT
ATIS : +44 1797 322 422



MET'MAP, your aeronautical weather chart ! - Copyright ORBIFLY December 2007 - Disclaimer

ORBIFLY MET'MAP TEAM :

Programming & Development : Alexandra Zaïnal
Concept & original design : Baudouin d'Aumeries
Assistance for programming : Marc-Olivier Méhu
Technical & hardware support : Manuel Goepfert

Contact : metmap@orbifly.com




SOURCES & CREDITS :

   NOAA